Abel, Alabama
Current Conditions -  °F | °C
As of 7:53 PM on Saturday 22 Nov 2014 (Local Time) from KANB Reporting Station
Overcast Overcast  
Wind Chill: 60°   Ceiling: 5500
Heat Index: 60°   Visibility: 10mi
Dew Point: 40°   Wind: 10mph
Humidity: 47%   Direction: 90°E
Pressure: 30.19"   Gusts: NA
Location:  33.4483°N, 85.6826°W
Report Text: KANB 230153Z AUTO 09009KT 10SM SCT030 OVC055 16/04 A3019 RMK AO2 SLP224 T01560044 $
Loading
Personal Weather Stations






























Interactive Weather Map New forecast layout! Learn more

10-Day Weather Forecast

Advertisements
Track Severe Weather on mobile